sensor_id;sensor_type;location;lat;lon;timestamp;P1;durP1;ratioP1;P2;durP2;ratioP2
67344;SDS011;54230;52.402;6.276;2023-04-16T00:00:00;56.3;;;14.5;;
67344;SDS011;54230;52.402;6.276;2023-04-16T00:05:00;51.0;;;14.2;;
67344;SDS011;54230;52.402;6.276;2023-04-16T00:10:00;54.3;;;14.9;;
67344;SDS011;54230;52.402;6.276;2023-04-16T00:15:00;57.9;;;15.5;;
67344;SDS011;54230;52.402;6.276;2023-04-16T00:20:00;63.4;;;16.4;;
67344;SDS011;54230;52.402;6.276;2023-04-16T00:25:00;58.0;;;15.5;;
67344;SDS011;54230;52.402;6.276;2023-04-16T00:30:00;52.3;;;15.3;;
67344;SDS011;54230;52.402;6.276;2023-04-16T00:35:00;51.3;;;15.7;;
67344;SDS011;54230;52.402;6.276;2023-04-16T00:40:00;50.1;;;15.3;;
67344;SDS011;54230;52.402;6.276;2023-04-16T00:45:00;51.4;;;16.6;;
67344;SDS011;54230;52.402;6.276;2023-04-16T00:50:01;47.2;;;15.8;;
67344;SDS011;54230;52.402;6.276;2023-04-16T00:55:00;41.5;;;14.7;;
67344;SDS011;54230;52.402;6.276;2023-04-16T01:00:00;54.6;;;16.3;;
67344;SDS011;54230;52.402;6.276;2023-04-16T01:05:00;50.6;;;15.6;;
67344;SDS011;54230;52.402;6.276;2023-04-16T01:10:00;49.2;;;15.7;;
67344;SDS011;54230;52.402;6.276;2023-04-16T01:15:00;49.1;;;15.3;;
67344;SDS011;54230;52.402;6.276;2023-04-16T01:20:00;50.0;;;15.0;;
67344;SDS011;54230;52.402;6.276;2023-04-16T01:25:00;51.8;;;16.5;;
67344;SDS011;54230;52.402;6.276;2023-04-16T01:30:00;50.8;;;15.9;;
67344;SDS011;54230;52.402;6.276;2023-04-16T01:35:00;49.9;;;17.0;;
67344;SDS011;54230;52.402;6.276;2023-04-16T01:40:00;48.8;;;15.6;;
67344;SDS011;54230;52.402;6.276;2023-04-16T01:45:00;49.0;;;15.9;;
67344;SDS011;54230;52.402;6.276;2023-04-16T01:50:00;51.4;;;16.6;;
67344;SDS011;54230;52.402;6.276;2023-04-16T01:55:00;49.8;;;16.5;;
67344;SDS011;54230;52.402;6.276;2023-04-16T02:00:00;57.2;;;17.3;;
67344;SDS011;54230;52.402;6.276;2023-04-16T02:05:00;53.3;;;17.3;;
67344;SDS011;54230;52.402;6.276;2023-04-16T02:10:00;54.2;;;18.0;;
67344;SDS011;54230;52.402;6.276;2023-04-16T02:15:00;54.8;;;17.5;;
67344;SDS011;54230;52.402;6.276;2023-04-16T02:20:00;51.7;;;18.0;;
67344;SDS011;54230;52.402;6.276;2023-04-16T02:25:00;60.6;;;18.3;;
67344;SDS011;54230;52.402;6.276;2023-04-16T02:30:00;60.7;;;18.5;;
67344;SDS011;54230;52.402;6.276;2023-04-16T02:35:00;56.2;;;18.2;;
67344;SDS011;54230;52.402;6.276;2023-04-16T02:40:00;54.9;;;18.8;;
67344;SDS011;54230;52.402;6.276;2023-04-16T02:45:00;60.3;;;19.3;;
67344;SDS011;54230;52.402;6.276;2023-04-16T02:50:00;60.6;;;18.8;;
67344;SDS011;54230;52.402;6.276;2023-04-16T02:55:00;62.8;;;19.7;;
67344;SDS011;54230;52.402;6.276;2023-04-16T03:00:00;62.9;;;20.1;;
67344;SDS011;54230;52.402;6.276;2023-04-16T03:05:00;64.2;;;19.7;;
67344;SDS011;54230;52.402;6.276;2023-04-16T03:10:00;62.6;;;19.8;;
67344;SDS011;54230;52.402;6.276;2023-04-16T03:15:00;59.9;;;19.4;;
67344;SDS011;54230;52.402;6.276;2023-04-16T03:20:00;54.1;;;18.9;;
67344;SDS011;54230;52.402;6.276;2023-04-16T03:25:00;57.0;;;19.5;;
67344;SDS011;54230;52.402;6.276;2023-04-16T03:30:00;61.2;;;19.4;;
67344;SDS011;54230;52.402;6.276;2023-04-16T03:35:00;50.0;;;18.5;;
67344;SDS011;54230;52.402;6.276;2023-04-16T03:40:00;54.0;;;18.9;;
67344;SDS011;54230;52.402;6.276;2023-04-16T03:45:00;50.8;;;18.3;;
67344;SDS011;54230;52.402;6.276;2023-04-16T03:50:00;53.1;;;19.1;;
67344;SDS011;54230;52.402;6.276;2023-04-16T03:55:00;52.6;;;19.1;;
67344;SDS011;54230;52.402;6.276;2023-04-16T04:00:00;48.8;;;19.6;;
67344;SDS011;54230;52.402;6.276;2023-04-16T04:05:00;53.5;;;19.7;;
67344;SDS011;54230;52.402;6.276;2023-04-16T04:10:00;53.4;;;19.1;;
67344;SDS011;54230;52.402;6.276;2023-04-16T04:15:00;47.7;;;18.0;;
67344;SDS011;54230;52.402;6.276;2023-04-16T04:20:00;46.2;;;17.7;;
67344;SDS011;54230;52.402;6.276;2023-04-16T04:25:00;50.8;;;18.6;;
67344;SDS011;54230;52.402;6.276;2023-04-16T04:30:00;42.9;;;17.7;;
67344;SDS011;54230;52.402;6.276;2023-04-16T04:35:00;44.7;;;18.0;;
67344;SDS011;54230;52.402;6.276;2023-04-16T04:40:00;45.5;;;17.3;;
67344;SDS011;54230;52.402;6.276;2023-04-16T04:45:00;46.2;;;18.5;;
67344;SDS011;54230;52.402;6.276;2023-04-16T04:50:00;45.7;;;18.8;;
67344;SDS011;54230;52.402;6.276;2023-04-16T04:55:00;48.6;;;18.7;;
67344;SDS011;54230;52.402;6.276;2023-04-16T05:00:00;48.3;;;18.0;;
67344;SDS011;54230;52.402;6.276;2023-04-16T05:05:00;50.3;;;18.6;;
67344;SDS011;54230;52.402;6.276;2023-04-16T05:10:00;50.2;;;19.1;;
67344;SDS011;54230;52.402;6.276;2023-04-16T05:15:00;49.4;;;19.3;;
67344;SDS011;54230;52.402;6.276;2023-04-16T05:20:00;50.6;;;18.0;;
67344;SDS011;54230;52.402;6.276;2023-04-16T05:25:00;48.2;;;18.3;;
67344;SDS011;54230;52.402;6.276;2023-04-16T05:30:00;48.6;;;18.7;;
67344;SDS011;54230;52.402;6.276;2023-04-16T05:35:00;47.6;;;18.0;;
67344;SDS011;54230;52.402;6.276;2023-04-16T05:40:00;45.0;;;17.5;;
67344;SDS011;54230;52.402;6.276;2023-04-16T05:45:01;43.6;;;17.5;;
67344;SDS011;54230;52.402;6.276;2023-04-16T05:50:00;40.2;;;17.5;;
67344;SDS011;54230;52.402;6.276;2023-04-16T05:55:00;41.8;;;18.5;;
67344;SDS011;54230;52.402;6.276;2023-04-16T06:00:00;42.3;;;17.6;;
67344;SDS011;54230;52.402;6.276;2023-04-16T06:05:00;38.8;;;17.0;;
67344;SDS011;54230;52.402;6.276;2023-04-16T06:10:00;40.1;;;18.3;;
67344;SDS011;54230;52.402;6.276;2023-04-16T06:15:00;45.1;;;18.0;;
67344;SDS011;54230;52.402;6.276;2023-04-16T06:20:00;44.9;;;18.1;;
67344;SDS011;54230;52.402;6.276;2023-04-16T06:25:00;38.1;;;18.2;;
67344;SDS011;54230;52.402;6.276;2023-04-16T06:30:00;39.9;;;17.7;;
67344;SDS011;54230;52.402;6.276;2023-04-16T06:35:00;43.2;;;19.0;;
67344;SDS011;54230;52.402;6.276;2023-04-16T06:40:00;38.2;;;17.3;;
67344;SDS011;54230;52.402;6.276;2023-04-16T06:45:00;35.9;;;17.6;;
67344;SDS011;54230;52.402;6.276;2023-04-16T06:50:00;38.5;;;17.8;;
67344;SDS011;54230;52.402;6.276;2023-04-16T06:55:00;42.9;;;18.9;;
67344;SDS011;54230;52.402;6.276;2023-04-16T07:00:00;39.7;;;17.9;;
67344;SDS011;54230;52.402;6.276;2023-04-16T07:05:00;41.4;;;18.3;;
67344;SDS011;54230;52.402;6.276;2023-04-16T07:10:00;37.9;;;17.5;;
67344;SDS011;54230;52.402;6.276;2023-04-16T07:15:00;39.8;;;17.4;;
67344;SDS011;54230;52.402;6.276;2023-04-16T07:20:00;37.4;;;17.3;;
67344;SDS011;54230;52.402;6.276;2023-04-16T07:25:00;40.4;;;18.2;;
67344;SDS011;54230;52.402;6.276;2023-04-16T07:30:00;38.3;;;17.5;;
67344;SDS011;54230;52.402;6.276;2023-04-16T07:35:00;38.8;;;17.8;;
67344;SDS011;54230;52.402;6.276;2023-04-16T07:40:00;29.9;;;16.2;;
67344;SDS011;54230;52.402;6.276;2023-04-16T07:45:00;32.9;;;16.8;;
67344;SDS011;54230;52.402;6.276;2023-04-16T07:50:00;31.8;;;16.3;;
67344;SDS011;54230;52.402;6.276;2023-04-16T07:55:00;31.2;;;15.7;;
67344;SDS011;54230;52.402;6.276;2023-04-16T08:00:00;32.3;;;17.7;;
67344;SDS011;54230;52.402;6.276;2023-04-16T08:05:00;33.8;;;17.1;;
67344;SDS011;54230;52.402;6.276;2023-04-16T08:10:00;34.5;;;17.4;;
67344;SDS011;54230;52.402;6.276;2023-04-16T08:15:00;34.0;;;17.5;;
67344;SDS011;54230;52.402;6.276;2023-04-16T08:20:00;36.7;;;18.8;;
67344;SDS011;54230;52.402;6.276;2023-04-16T08:25:00;35.0;;;17.8;;
67344;SDS011;54230;52.402;6.276;2023-04-16T08:30:00;37.3;;;18.1;;
67344;SDS011;54230;52.402;6.276;2023-04-16T08:35:00;36.1;;;17.3;;
67344;SDS011;54230;52.402;6.276;2023-04-16T08:40:00;39.5;;;18.3;;
67344;SDS011;54230;52.402;6.276;2023-04-16T08:45:03;33.4;;;17.6;;
67344;SDS011;54230;52.402;6.276;2023-04-16T08:50:01;31.6;;;17.4;;
67344;SDS011;54230;52.402;6.276;2023-04-16T08:55:02;31.9;;;16.7;;
67344;SDS011;54230;52.402;6.276;2023-04-16T09:00:00;33.8;;;16.8;;
67344;SDS011;54230;52.402;6.276;2023-04-16T09:05:00;32.3;;;17.4;;
67344;SDS011;54230;52.402;6.276;2023-04-16T09:10:00;33.5;;;17.1;;
67344;SDS011;54230;52.402;6.276;2023-04-16T09:15:00;30.7;;;16.3;;
67344;SDS011;54230;52.402;6.276;2023-04-16T09:20:00;32.1;;;17.0;;
67344;SDS011;54230;52.402;6.276;2023-04-16T09:25:00;30.1;;;15.8;;
67344;SDS011;54230;52.402;6.276;2023-04-16T09:30:00;31.0;;;16.5;;
67344;SDS011;54230;52.402;6.276;2023-04-16T09:35:00;30.2;;;15.2;;
67344;SDS011;54230;52.402;6.276;2023-04-16T09:40:00;28.0;;;15.3;;
67344;SDS011;54230;52.402;6.276;2023-04-16T09:45:00;26.2;;;14.9;;
67344;SDS011;54230;52.402;6.276;2023-04-16T09:50:00;27.1;;;14.9;;
67344;SDS011;54230;52.402;6.276;2023-04-16T09:55:00;28.3;;;14.3;;
67344;SDS011;54230;52.402;6.276;2023-04-16T10:00:01;24.6;;;14.6;;
67344;SDS011;54230;52.402;6.276;2023-04-16T10:05:01;25.6;;;14.5;;
67344;SDS011;54230;52.402;6.276;2023-04-16T10:10:00;26.9;;;14.4;;
67344;SDS011;54230;52.402;6.276;2023-04-16T10:15:00;25.9;;;13.9;;
67344;SDS011;54230;52.402;6.276;2023-04-16T10:20:00;26.6;;;14.8;;
67344;SDS011;54230;52.402;6.276;2023-04-16T10:25:00;26.8;;;14.7;;
67344;SDS011;54230;52.402;6.276;2023-04-16T10:30:00;25.1;;;14.6;;
67344;SDS011;54230;52.402;6.276;2023-04-16T10:35:00;23.1;;;13.3;;
67344;SDS011;54230;52.402;6.276;2023-04-16T10:40:00;23.5;;;13.9;;
67344;SDS011;54230;52.402;6.276;2023-04-16T10:45:00;25.1;;;14.0;;
67344;SDS011;54230;52.402;6.276;2023-04-16T10:50:00;22.9;;;14.2;;
67344;SDS011;54230;52.402;6.276;2023-04-16T10:55:00;25.7;;;13.6;;
67344;SDS011;54230;52.402;6.276;2023-04-16T11:00:00;26.8;;;14.1;;
67344;SDS011;54230;52.402;6.276;2023-04-16T11:05:00;25.1;;;13.9;;
67344;SDS011;54230;52.402;6.276;2023-04-16T11:10:02;28.1;;;14.3;;
67344;SDS011;54230;52.402;6.276;2023-04-16T11:15:00;22.5;;;12.6;;
67344;SDS011;54230;52.402;6.276;2023-04-16T11:20:00;24.3;;;13.2;;
67344;SDS011;54230;52.402;6.276;2023-04-16T11:25:00;24.6;;;13.3;;
67344;SDS011;54230;52.402;6.276;2023-04-16T11:30:00;22.4;;;13.5;;
67344;SDS011;54230;52.402;6.276;2023-04-16T11:35:00;26.5;;;13.8;;
67344;SDS011;54230;52.402;6.276;2023-04-16T11:40:00;28.6;;;14.0;;
67344;SDS011;54230;52.402;6.276;2023-04-16T11:45:00;26.2;;;13.9;;
67344;SDS011;54230;52.402;6.276;2023-04-16T11:55:01;28.5;;;14.8;;
67344;SDS011;54230;52.402;6.276;2023-04-16T12:00:00;28.6;;;13.6;;
67344;SDS011;54230;52.402;6.276;2023-04-16T12:05:01;31.5;;;13.9;;
67344;SDS011;54230;52.402;6.276;2023-04-16T12:10:04;31.3;;;14.1;;
67344;SDS011;54230;52.402;6.276;2023-04-16T12:15:00;26.5;;;13.5;;
67344;SDS011;54230;52.402;6.276;2023-04-16T12:20:01;29.0;;;14.1;;
67344;SDS011;54230;52.402;6.276;2023-04-16T12:25:00;28.3;;;13.6;;
67344;SDS011;54230;52.402;6.276;2023-04-16T12:30:02;32.2;;;13.4;;
67344;SDS011;54230;52.402;6.276;2023-04-16T12:35:00;31.1;;;13.8;;
67344;SDS011;54230;52.402;6.276;2023-04-16T12:40:00;31.2;;;13.7;;
67344;SDS011;54230;52.402;6.276;2023-04-16T12:45:00;30.0;;;13.9;;
67344;SDS011;54230;52.402;6.276;2023-04-16T12:50:00;28.7;;;13.4;;
67344;SDS011;54230;52.402;6.276;2023-04-16T12:55:00;28.3;;;13.3;;
67344;SDS011;54230;52.402;6.276;2023-04-16T13:00:00;32.6;;;13.5;;
67344;SDS011;54230;52.402;6.276;2023-04-16T13:05:00;30.0;;;13.1;;
67344;SDS011;54230;52.402;6.276;2023-04-16T13:10:00;32.0;;;13.1;;
67344;SDS011;54230;52.402;6.276;2023-04-16T13:15:00;29.0;;;13.4;;
67344;SDS011;54230;52.402;6.276;2023-04-16T13:20:00;27.1;;;12.9;;
67344;SDS011;54230;52.402;6.276;2023-04-16T13:25:00;27.1;;;12.8;;
67344;SDS011;54230;52.402;6.276;2023-04-16T13:30:00;27.3;;;13.6;;
67344;SDS011;54230;52.402;6.276;2023-04-16T13:35:00;28.8;;;13.4;;
67344;SDS011;54230;52.402;6.276;2023-04-16T13:40:00;28.3;;;13.4;;
67344;SDS011;54230;52.402;6.276;2023-04-16T13:45:00;25.3;;;12.4;;
67344;SDS011;54230;52.402;6.276;2023-04-16T13:50:00;27.5;;;13.0;;
67344;SDS011;54230;52.402;6.276;2023-04-16T13:55:00;26.8;;;13.0;;
67344;SDS011;54230;52.402;6.276;2023-04-16T14:00:01;25.1;;;12.9;;
67344;SDS011;54230;52.402;6.276;2023-04-16T14:05:00;26.9;;;13.1;;
67344;SDS011;54230;52.402;6.276;2023-04-16T14:10:00;23.5;;;12.3;;
67344;SDS011;54230;52.402;6.276;2023-04-16T14:15:00;24.1;;;12.7;;
67344;SDS011;54230;52.402;6.276;2023-04-16T14:20:00;23.3;;;11.9;;
67344;SDS011;54230;52.402;6.276;2023-04-16T14:25:00;24.0;;;12.0;;
67344;SDS011;54230;52.402;6.276;2023-04-16T14:30:00;25.0;;;11.7;;
67344;SDS011;54230;52.402;6.276;2023-04-16T14:35:00;23.5;;;11.5;;
67344;SDS011;54230;52.402;6.276;2023-04-16T14:40:00;24.1;;;11.8;;
67344;SDS011;54230;52.402;6.276;2023-04-16T14:45:00;23.3;;;11.1;;
67344;SDS011;54230;52.402;6.276;2023-04-16T14:50:00;23.4;;;11.9;;
67344;SDS011;54230;52.402;6.276;2023-04-16T14:55:00;24.4;;;11.2;;
67344;SDS011;54230;52.402;6.276;2023-04-16T15:00:00;21.8;;;11.3;;
67344;SDS011;54230;52.402;6.276;2023-04-16T15:05:00;22.7;;;11.3;;
67344;SDS011;54230;52.402;6.276;2023-04-16T15:10:00;24.0;;;11.9;;
67344;SDS011;54230;52.402;6.276;2023-04-16T15:15:00;21.3;;;11.6;;
67344;SDS011;54230;52.402;6.276;2023-04-16T15:20:00;20.3;;;11.2;;
67344;SDS011;54230;52.402;6.276;2023-04-16T15:25:00;24.1;;;12.0;;
67344;SDS011;54230;52.402;6.276;2023-04-16T15:30:00;23.0;;;12.2;;
67344;SDS011;54230;52.402;6.276;2023-04-16T15:35:01;21.8;;;12.5;;
67344;SDS011;54230;52.402;6.276;2023-04-16T15:40:00;23.1;;;12.3;;
67344;SDS011;54230;52.402;6.276;2023-04-16T15:45:00;25.5;;;13.1;;
67344;SDS011;54230;52.402;6.276;2023-04-16T15:50:00;25.6;;;12.5;;
67344;SDS011;54230;52.402;6.276;2023-04-16T15:55:00;23.2;;;12.7;;
67344;SDS011;54230;52.402;6.276;2023-04-16T16:00:00;24.2;;;12.7;;
67344;SDS011;54230;52.402;6.276;2023-04-16T16:05:00;21.5;;;13.1;;
67344;SDS011;54230;52.402;6.276;2023-04-16T16:10:00;22.3;;;12.4;;
67344;SDS011;54230;52.402;6.276;2023-04-16T16:15:00;27.8;;;13.8;;
67344;SDS011;54230;52.402;6.276;2023-04-16T16:20:00;24.0;;;12.9;;
67344;SDS011;54230;52.402;6.276;2023-04-16T16:25:00;22.0;;;12.4;;
67344;SDS011;54230;52.402;6.276;2023-04-16T16:30:00;26.5;;;13.9;;
67344;SDS011;54230;52.402;6.276;2023-04-16T16:35:00;23.1;;;12.9;;
67344;SDS011;54230;52.402;6.276;2023-04-16T16:40:00;24.4;;;13.4;;
67344;SDS011;54230;52.402;6.276;2023-04-16T16:45:00;23.6;;;13.0;;
67344;SDS011;54230;52.402;6.276;2023-04-16T16:50:00;24.3;;;12.5;;
67344;SDS011;54230;52.402;6.276;2023-04-16T16:55:00;31.4;;;15.3;;
67344;SDS011;54230;52.402;6.276;2023-04-16T17:00:00;34.4;;;15.5;;
67344;SDS011;54230;52.402;6.276;2023-04-16T17:05:00;29.2;;;14.4;;
67344;SDS011;54230;52.402;6.276;2023-04-16T17:10:00;22.1;;;13.7;;
67344;SDS011;54230;52.402;6.276;2023-04-16T17:15:00;26.7;;;14.3;;
67344;SDS011;54230;52.402;6.276;2023-04-16T17:20:00;25.5;;;14.3;;
67344;SDS011;54230;52.402;6.276;2023-04-16T17:25:00;27.4;;;16.0;;
67344;SDS011;54230;52.402;6.276;2023-04-16T17:30:00;28.0;;;16.1;;
67344;SDS011;54230;52.402;6.276;2023-04-16T17:35:00;24.9;;;15.1;;
67344;SDS011;54230;52.402;6.276;2023-04-16T17:40:00;27.6;;;15.7;;
67344;SDS011;54230;52.402;6.276;2023-04-16T17:45:00;28.3;;;15.7;;
67344;SDS011;54230;52.402;6.276;2023-04-16T17:50:00;28.9;;;16.8;;
67344;SDS011;54230;52.402;6.276;2023-04-16T17:55:00;29.3;;;16.2;;
67344;SDS011;54230;52.402;6.276;2023-04-16T18:00:00;27.7;;;15.9;;
67344;SDS011;54230;52.402;6.276;2023-04-16T18:05:00;29.6;;;17.3;;
67344;SDS011;54230;52.402;6.276;2023-04-16T18:10:00;30.7;;;16.6;;
67344;SDS011;54230;52.402;6.276;2023-04-16T18:15:00;29.0;;;16.6;;
67344;SDS011;54230;52.402;6.276;2023-04-16T18:20:00;31.1;;;16.6;;
67344;SDS011;54230;52.402;6.276;2023-04-16T18:25:00;31.4;;;17.0;;
67344;SDS011;54230;52.402;6.276;2023-04-16T18:30:00;34.6;;;17.0;;
67344;SDS011;54230;52.402;6.276;2023-04-16T18:35:00;30.6;;;17.1;;
67344;SDS011;54230;52.402;6.276;2023-04-16T18:40:00;31.6;;;17.9;;
67344;SDS011;54230;52.402;6.276;2023-04-16T18:45:00;32.1;;;17.4;;
67344;SDS011;54230;52.402;6.276;2023-04-16T18:50:00;32.2;;;17.2;;
67344;SDS011;54230;52.402;6.276;2023-04-16T18:55:00;33.3;;;17.8;;
67344;SDS011;54230;52.402;6.276;2023-04-16T19:00:00;31.0;;;17.9;;
67344;SDS011;54230;52.402;6.276;2023-04-16T19:05:00;34.2;;;17.6;;
67344;SDS011;54230;52.402;6.276;2023-04-16T19:10:00;38.9;;;19.3;;
67344;SDS011;54230;52.402;6.276;2023-04-16T19:15:00;55.0;;;32.2;;
67344;SDS011;54230;52.402;6.276;2023-04-16T19:20:00;31.6;;;18.0;;
67344;SDS011;54230;52.402;6.276;2023-04-16T19:25:00;41.0;;;21.5;;
67344;SDS011;54230;52.402;6.276;2023-04-16T19:30:00;34.7;;;18.6;;
67344;SDS011;54230;52.402;6.276;2023-04-16T19:35:00;33.8;;;18.4;;
67344;SDS011;54230;52.402;6.276;2023-04-16T19:40:00;33.2;;;19.7;;
67344;SDS011;54230;52.402;6.276;2023-04-16T19:45:00;36.6;;;19.8;;
67344;SDS011;54230;52.402;6.276;2023-04-16T19:50:00;35.0;;;19.1;;
67344;SDS011;54230;52.402;6.276;2023-04-16T19:55:00;33.9;;;18.5;;
67344;SDS011;54230;52.402;6.276;2023-04-16T20:00:00;38.2;;;19.3;;
67344;SDS011;54230;52.402;6.276;2023-04-16T20:05:00;36.8;;;18.8;;
67344;SDS011;54230;52.402;6.276;2023-04-16T20:10:00;33.2;;;18.8;;
67344;SDS011;54230;52.402;6.276;2023-04-16T20:15:00;35.1;;;18.4;;
67344;SDS011;54230;52.402;6.276;2023-04-16T20:20:00;36.3;;;19.4;;
67344;SDS011;54230;52.402;6.276;2023-04-16T20:25:00;36.1;;;18.9;;
67344;SDS011;54230;52.402;6.276;2023-04-16T20:30:00;36.4;;;19.3;;
67344;SDS011;54230;52.402;6.276;2023-04-16T20:35:00;34.2;;;18.8;;
67344;SDS011;54230;52.402;6.276;2023-04-16T20:40:00;34.7;;;18.4;;
67344;SDS011;54230;52.402;6.276;2023-04-16T20:45:00;33.2;;;18.4;;
67344;SDS011;54230;52.402;6.276;2023-04-16T20:50:00;32.0;;;18.4;;
67344;SDS011;54230;52.402;6.276;2023-04-16T20:55:00;36.7;;;19.9;;
67344;SDS011;54230;52.402;6.276;2023-04-16T21:00:00;33.4;;;19.0;;
67344;SDS011;54230;52.402;6.276;2023-04-16T21:05:00;33.6;;;18.3;;
67344;SDS011;54230;52.402;6.276;2023-04-16T21:10:00;35.1;;;19.6;;
67344;SDS011;54230;52.402;6.276;2023-04-16T21:15:00;37.3;;;19.3;;
67344;SDS011;54230;52.402;6.276;2023-04-16T21:20:00;36.8;;;19.4;;
67344;SDS011;54230;52.402;6.276;2023-04-16T21:25:00;36.2;;;18.4;;
67344;SDS011;54230;52.402;6.276;2023-04-16T21:30:00;35.3;;;18.3;;
67344;SDS011;54230;52.402;6.276;2023-04-16T21:35:00;35.8;;;19.2;;
67344;SDS011;54230;52.402;6.276;2023-04-16T21:40:00;36.4;;;19.0;;
67344;SDS011;54230;52.402;6.276;2023-04-16T21:45:00;38.1;;;19.1;;
67344;SDS011;54230;52.402;6.276;2023-04-16T21:50:00;34.7;;;18.2;;
67344;SDS011;54230;52.402;6.276;2023-04-16T21:55:00;37.1;;;18.0;;
67344;SDS011;54230;52.402;6.276;2023-04-16T22:00:00;35.6;;;17.8;;
67344;SDS011;54230;52.402;6.276;2023-04-16T22:05:00;35.7;;;18.5;;
67344;SDS011;54230;52.402;6.276;2023-04-16T22:10:00;36.9;;;18.1;;
67344;SDS011;54230;52.402;6.276;2023-04-16T22:15:00;35.4;;;18.3;;
67344;SDS011;54230;52.402;6.276;2023-04-16T22:20:00;36.0;;;18.8;;
67344;SDS011;54230;52.402;6.276;2023-04-16T22:25:00;39.7;;;18.7;;
67344;SDS011;54230;52.402;6.276;2023-04-16T22:30:00;36.1;;;18.1;;
67344;SDS011;54230;52.402;6.276;2023-04-16T22:35:00;34.8;;;17.7;;
67344;SDS011;54230;52.402;6.276;2023-04-16T22:40:00;34.8;;;17.6;;
67344;SDS011;54230;52.402;6.276;2023-04-16T22:45:00;35.7;;;17.2;;
67344;SDS011;54230;52.402;6.276;2023-04-16T22:50:00;35.9;;;17.3;;
67344;SDS011;54230;52.402;6.276;2023-04-16T22:55:00;34.8;;;16.8;;
67344;SDS011;54230;52.402;6.276;2023-04-16T23:00:00;34.1;;;17.1;;
67344;SDS011;54230;52.402;6.276;2023-04-16T23:05:00;36.5;;;17.2;;
67344;SDS011;54230;52.402;6.276;2023-04-16T23:10:00;34.2;;;17.6;;
67344;SDS011;54230;52.402;6.276;2023-04-16T23:15:00;35.0;;;17.2;;
67344;SDS011;54230;52.402;6.276;2023-04-16T23:20:00;33.8;;;17.1;;
67344;SDS011;54230;52.402;6.276;2023-04-16T23:25:00;32.4;;;16.4;;
67344;SDS011;54230;52.402;6.276;2023-04-16T23:30:00;34.3;;;17.0;;
67344;SDS011;54230;52.402;6.276;2023-04-16T23:35:00;34.6;;;17.6;;
67344;SDS011;54230;52.402;6.276;2023-04-16T23:40:00;34.1;;;16.9;;
67344;SDS011;54230;52.402;6.276;2023-04-16T23:45:00;27.9;;;14.9;;
67344;SDS011;54230;52.402;6.276;2023-04-16T23:50:00;27.5;;;15.1;;
67344;SDS011;54230;52.402;6.276;2023-04-16T23:55:00;26.7;;;15.3;;
